Rechercher aéroport 
image banner adimage banner adimage banner ad
image banner ad

60CL - Chp Academy

Situé à Bryte, United States

ICAO - 60CL, IATA -

Données fournies par Airmate  

Information générale

Coordonnées: N38°35'56" W121°33'38"
Élévation : 20 feet MSL.
Variation magnétique : 16° East
Voir autres Aéroports à California

Données opérationnelles

Special qualification required
Heure actuelle UTC:
Heure actuelle locale:
Météo à : KSMF - Sacramento Intl ( 11 km )
METAR: KSMF 251453Z 14008KT 10SM FEW150 BKN190 18/11 A2989 RMK AO2 SLP122 T01780111 51012 $
TAF: KSMF 251120Z 2512/2612 17008KT P6SM SCT200 FM260200 18012G20KT P6SM FEW150 BKN250
Voir NOTAMs / SUP AIP / TFR affectant cet aéroport [VIEW]
Fréquences de communication: [VIEW]

Pistes:

Identifiant RWYQFULongueur (ft)Largeur (ft)SurfaceLDA (ft)
05140024ASPH
23140024ASPH
16120020ASPH
34120020ASPH

Coordonnées de l'aéroport

Adresse: Bryte United States

Vue satellite de 60CL